sensor_id;sensor_type;location;lat;lon;timestamp;P1;durP1;ratioP1;P2;durP2;ratioP2
48613;SDS011;34408;51.426;5.444;2023-12-28T00:00:06;5.03;;;1.70;;
48613;SDS011;34408;51.426;5.444;2023-12-28T00:02:35;3.25;;;1.80;;
48613;SDS011;34408;51.426;5.444;2023-12-28T00:05:03;3.63;;;2.20;;
48613;SDS011;34408;51.426;5.444;2023-12-28T00:07:31;4.53;;;1.98;;
48613;SDS011;34408;51.426;5.444;2023-12-28T00:09:59;2.10;;;1.70;;
48613;SDS011;34408;51.426;5.444;2023-12-28T00:12:27;3.38;;;1.88;;
48613;SDS011;34408;51.426;5.444;2023-12-28T00:14:56;5.80;;;2.08;;
48613;SDS011;34408;51.426;5.444;2023-12-28T00:17:24;5.75;;;1.80;;
48613;SDS011;34408;51.426;5.444;2023-12-28T00:19:52;3.40;;;1.90;;
48613;SDS011;34408;51.426;5.444;2023-12-28T00:22:19;4.00;;;2.00;;
48613;SDS011;34408;51.426;5.444;2023-12-28T00:24:47;4.95;;;1.88;;
48613;SDS011;34408;51.426;5.444;2023-12-28T00:27:15;3.95;;;2.10;;
48613;SDS011;34408;51.426;5.444;2023-12-28T00:29:43;2.45;;;1.45;;
48613;SDS011;34408;51.426;5.444;2023-12-28T00:32:12;9.45;;;1.90;;
48613;SDS011;34408;51.426;5.444;2023-12-28T00:34:40;2.63;;;1.80;;
48613;SDS011;34408;51.426;5.444;2023-12-28T00:37:08;3.30;;;1.90;;
48613;SDS011;34408;51.426;5.444;2023-12-28T00:39:35;3.35;;;2.40;;
48613;SDS011;34408;51.426;5.444;2023-12-28T00:42:04;2.65;;;1.83;;
48613;SDS011;34408;51.426;5.444;2023-12-28T00:44:32;3.45;;;1.83;;
48613;SDS011;34408;51.426;5.444;2023-12-28T00:47:00;3.97;;;1.60;;
48613;SDS011;34408;51.426;5.444;2023-12-28T00:49:29;3.83;;;1.70;;
48613;SDS011;34408;51.426;5.444;2023-12-28T00:51:57;5.65;;;1.83;;
48613;SDS011;34408;51.426;5.444;2023-12-28T00:54:25;3.65;;;1.80;;
48613;SDS011;34408;51.426;5.444;2023-12-28T00:56:52;3.97;;;2.00;;
48613;SDS011;34408;51.426;5.444;2023-12-28T00:59:20;4.20;;;2.10;;
48613;SDS011;34408;51.426;5.444;2023-12-28T01:01:48;3.20;;;1.80;;
48613;SDS011;34408;51.426;5.444;2023-12-28T01:04:16;6.32;;;1.83;;
48613;SDS011;34408;51.426;5.444;2023-12-28T01:06:46;4.50;;;2.00;;
48613;SDS011;34408;51.426;5.444;2023-12-28T01:09:14;2.95;;;1.73;;
48613;SDS011;34408;51.426;5.444;2023-12-28T01:11:42;4.15;;;1.60;;
48613;SDS011;34408;51.426;5.444;2023-12-28T01:14:10;3.78;;;1.63;;
48613;SDS011;34408;51.426;5.444;2023-12-28T01:16:38;3.75;;;2.35;;
48613;SDS011;34408;51.426;5.444;2023-12-28T01:19:06;2.35;;;1.60;;
48613;SDS011;34408;51.426;5.444;2023-12-28T01:21:34;3.30;;;2.03;;
48613;SDS011;34408;51.426;5.444;2023-12-28T01:24:04;4.55;;;2.10;;
48613;SDS011;34408;51.426;5.444;2023-12-28T01:26:32;3.28;;;2.03;;
48613;SDS011;34408;51.426;5.444;2023-12-28T01:29:01;4.22;;;1.90;;
48613;SDS011;34408;51.426;5.444;2023-12-28T01:31:29;2.53;;;1.60;;
48613;SDS011;34408;51.426;5.444;2023-12-28T01:33:57;3.28;;;1.88;;
48613;SDS011;34408;51.426;5.444;2023-12-28T01:36:25;3.72;;;1.65;;
48613;SDS011;34408;51.426;5.444;2023-12-28T01:38:55;4.03;;;1.50;;
48613;SDS011;34408;51.426;5.444;2023-12-28T01:41:25;3.35;;;1.88;;
48613;SDS011;34408;51.426;5.444;2023-12-28T01:43:52;6.13;;;1.60;;
48613;SDS011;34408;51.426;5.444;2023-12-28T01:46:21;5.68;;;1.77;;
48613;SDS011;34408;51.426;5.444;2023-12-28T01:48:49;3.33;;;2.03;;
48613;SDS011;34408;51.426;5.444;2023-12-28T01:51:18;4.60;;;1.90;;
48613;SDS011;34408;51.426;5.444;2023-12-28T01:53:47;5.38;;;2.10;;
48613;SDS011;34408;51.426;5.444;2023-12-28T01:56:17;3.30;;;1.65;;
48613;SDS011;34408;51.426;5.444;2023-12-28T01:58:47;3.70;;;1.60;;
48613;SDS011;34408;51.426;5.444;2023-12-28T02:01:17;3.75;;;1.60;;
48613;SDS011;34408;51.426;5.444;2023-12-28T02:03:45;4.03;;;1.75;;
48613;SDS011;34408;51.426;5.444;2023-12-28T02:06:14;2.38;;;1.48;;
48613;SDS011;34408;51.426;5.444;2023-12-28T02:08:43;3.63;;;1.58;;
48613;SDS011;34408;51.426;5.444;2023-12-28T02:11:11;4.07;;;1.70;;
48613;SDS011;34408;51.426;5.444;2023-12-28T02:13:39;4.13;;;1.75;;
48613;SDS011;34408;51.426;5.444;2023-12-28T02:16:09;5.40;;;1.60;;
48613;SDS011;34408;51.426;5.444;2023-12-28T02:18:42;2.97;;;1.60;;
48613;SDS011;34408;51.426;5.444;2023-12-28T02:21:11;4.93;;;1.90;;
48613;SDS011;34408;51.426;5.444;2023-12-28T02:23:45;3.38;;;1.70;;
48613;SDS011;34408;51.426;5.444;2023-12-28T02:26:15;5.05;;;1.75;;
48613;SDS011;34408;51.426;5.444;2023-12-28T02:28:43;3.58;;;1.77;;
48613;SDS011;34408;51.426;5.444;2023-12-28T02:31:13;6.35;;;2.40;;
48613;SDS011;34408;51.426;5.444;2023-12-28T02:33:48;4.00;;;1.75;;
48613;SDS011;34408;51.426;5.444;2023-12-28T02:36:18;3.35;;;1.75;;
48613;SDS011;34408;51.426;5.444;2023-12-28T02:38:50;2.80;;;1.50;;
48613;SDS011;34408;51.426;5.444;2023-12-28T02:41:23;4.70;;;1.60;;
48613;SDS011;34408;51.426;5.444;2023-12-28T02:43:52;4.80;;;1.65;;
48613;SDS011;34408;51.426;5.444;2023-12-28T02:46:20;3.28;;;1.73;;
48613;SDS011;34408;51.426;5.444;2023-12-28T02:48:48;5.45;;;1.83;;
48613;SDS011;34408;51.426;5.444;2023-12-28T02:51:17;4.82;;;1.80;;
48613;SDS011;34408;51.426;5.444;2023-12-28T02:53:45;5.03;;;1.83;;
48613;SDS011;34408;51.426;5.444;2023-12-28T02:56:13;2.95;;;1.88;;
48613;SDS011;34408;51.426;5.444;2023-12-28T02:58:42;3.90;;;2.15;;
48613;SDS011;34408;51.426;5.444;2023-12-28T03:01:10;3.85;;;1.85;;
48613;SDS011;34408;51.426;5.444;2023-12-28T03:03:38;5.05;;;1.80;;
48613;SDS011;34408;51.426;5.444;2023-12-28T03:06:06;2.30;;;1.45;;
48613;SDS011;34408;51.426;5.444;2023-12-28T03:08:34;2.78;;;1.60;;
48613;SDS011;34408;51.426;5.444;2023-12-28T03:11:02;2.45;;;1.52;;
48613;SDS011;34408;51.426;5.444;2023-12-28T03:13:30;4.75;;;1.50;;
48613;SDS011;34408;51.426;5.444;2023-12-28T03:16:00;3.00;;;1.52;;
48613;SDS011;34408;51.426;5.444;2023-12-28T03:18:27;2.90;;;1.30;;
48613;SDS011;34408;51.426;5.444;2023-12-28T03:20:55;3.40;;;1.58;;
48613;SDS011;34408;51.426;5.444;2023-12-28T03:23:23;4.07;;;1.50;;
48613;SDS011;34408;51.426;5.444;2023-12-28T03:25:51;3.15;;;1.50;;
48613;SDS011;34408;51.426;5.444;2023-12-28T03:28:19;5.45;;;1.60;;
48613;SDS011;34408;51.426;5.444;2023-12-28T03:30:48;4.40;;;1.52;;
48613;SDS011;34408;51.426;5.444;2023-12-28T03:33:17;6.10;;;1.60;;
48613;SDS011;34408;51.426;5.444;2023-12-28T03:35:45;7.90;;;1.83;;
48613;SDS011;34408;51.426;5.444;2023-12-28T03:38:13;6.95;;;1.67;;
48613;SDS011;34408;51.426;5.444;2023-12-28T03:40:41;4.63;;;1.50;;
48613;SDS011;34408;51.426;5.444;2023-12-28T03:43:09;3.65;;;2.22;;
48613;SDS011;34408;51.426;5.444;2023-12-28T03:45:37;5.25;;;1.85;;
48613;SDS011;34408;51.426;5.444;2023-12-28T03:48:05;5.03;;;1.80;;
48613;SDS011;34408;51.426;5.444;2023-12-28T03:50:35;4.68;;;2.33;;
48613;SDS011;34408;51.426;5.444;2023-12-28T03:53:03;6.82;;;1.83;;
48613;SDS011;34408;51.426;5.444;2023-12-28T03:55:31;3.80;;;1.85;;
48613;SDS011;34408;51.426;5.444;2023-12-28T03:57:58;4.15;;;2.30;;
48613;SDS011;34408;51.426;5.444;2023-12-28T04:00:27;3.47;;;1.88;;
48613;SDS011;34408;51.426;5.444;2023-12-28T04:02:55;3.47;;;1.70;;
48613;SDS011;34408;51.426;5.444;2023-12-28T04:05:25;5.82;;;1.73;;
48613;SDS011;34408;51.426;5.444;2023-12-28T04:07:54;3.17;;;1.80;;
48613;SDS011;34408;51.426;5.444;2023-12-28T04:10:28;6.30;;;1.50;;
48613;SDS011;34408;51.426;5.444;2023-12-28T04:12:57;3.22;;;1.52;;
48613;SDS011;34408;51.426;5.444;2023-12-28T04:15:26;4.68;;;1.67;;
48613;SDS011;34408;51.426;5.444;2023-12-28T04:17:54;2.70;;;1.50;;
48613;SDS011;34408;51.426;5.444;2023-12-28T04:20:22;5.03;;;1.77;;
48613;SDS011;34408;51.426;5.444;2023-12-28T04:22:50;5.72;;;1.80;;
48613;SDS011;34408;51.426;5.444;2023-12-28T04:25:20;4.53;;;1.65;;
48613;SDS011;34408;51.426;5.444;2023-12-28T04:27:47;4.72;;;1.75;;
48613;SDS011;34408;51.426;5.444;2023-12-28T04:30:16;4.63;;;1.85;;
48613;SDS011;34408;51.426;5.444;2023-12-28T04:32:44;4.90;;;1.70;;
48613;SDS011;34408;51.426;5.444;2023-12-28T04:35:12;2.90;;;1.52;;
48613;SDS011;34408;51.426;5.444;2023-12-28T04:37:39;4.28;;;1.83;;
48613;SDS011;34408;51.426;5.444;2023-12-28T04:40:08;6.03;;;1.85;;
48613;SDS011;34408;51.426;5.444;2023-12-28T04:42:38;5.72;;;1.60;;
48613;SDS011;34408;51.426;5.444;2023-12-28T04:45:06;5.35;;;1.70;;
48613;SDS011;34408;51.426;5.444;2023-12-28T04:47:34;5.50;;;1.85;;
48613;SDS011;34408;51.426;5.444;2023-12-28T04:50:03;8.52;;;1.85;;
48613;SDS011;34408;51.426;5.444;2023-12-28T04:52:31;5.03;;;1.85;;
48613;SDS011;34408;51.426;5.444;2023-12-28T04:54:59;2.80;;;1.17;;
48613;SDS011;34408;51.426;5.444;2023-12-28T04:57:27;8.38;;;2.80;;
48613;SDS011;34408;51.426;5.444;2023-12-28T04:59:56;3.00;;;1.52;;
48613;SDS011;34408;51.426;5.444;2023-12-28T05:02:24;3.80;;;1.70;;
48613;SDS011;34408;51.426;5.444;2023-12-28T05:04:52;4.65;;;1.60;;
48613;SDS011;34408;51.426;5.444;2023-12-28T05:07:20;6.65;;;1.95;;
48613;SDS011;34408;51.426;5.444;2023-12-28T05:09:48;7.68;;;1.90;;
48613;SDS011;34408;51.426;5.444;2023-12-28T05:12:16;6.25;;;1.77;;
48613;SDS011;34408;51.426;5.444;2023-12-28T05:14:43;4.90;;;1.83;;
48613;SDS011;34408;51.426;5.444;2023-12-28T05:17:13;8.68;;;2.10;;
48613;SDS011;34408;51.426;5.444;2023-12-28T05:19:41;9.52;;;2.13;;
48613;SDS011;34408;51.426;5.444;2023-12-28T05:22:08;11.57;;;2.30;;
48613;SDS011;34408;51.426;5.444;2023-12-28T05:24:37;9.00;;;2.45;;
48613;SDS011;34408;51.426;5.444;2023-12-28T05:27:05;9.32;;;2.40;;
48613;SDS011;34408;51.426;5.444;2023-12-28T05:29:33;10.65;;;2.08;;
48613;SDS011;34408;51.426;5.444;2023-12-28T05:32:01;7.68;;;2.20;;
48613;SDS011;34408;51.426;5.444;2023-12-28T05:34:30;9.63;;;2.45;;
48613;SDS011;34408;51.426;5.444;2023-12-28T05:36:58;8.15;;;2.72;;
48613;SDS011;34408;51.426;5.444;2023-12-28T05:39:26;8.38;;;2.22;;
48613;SDS011;34408;51.426;5.444;2023-12-28T05:41:54;8.70;;;2.75;;
48613;SDS011;34408;51.426;5.444;2023-12-28T05:44:21;11.60;;;2.78;;
48613;SDS011;34408;51.426;5.444;2023-12-28T05:46:49;13.25;;;3.25;;
48613;SDS011;34408;51.426;5.444;2023-12-28T05:49:18;10.07;;;2.20;;
48613;SDS011;34408;51.426;5.444;2023-12-28T05:51:48;8.35;;;1.95;;
48613;SDS011;34408;51.426;5.444;2023-12-28T05:54:15;7.22;;;1.70;;
48613;SDS011;34408;51.426;5.444;2023-12-28T05:56:43;14.73;;;2.13;;
48613;SDS011;34408;51.426;5.444;2023-12-28T05:59:11;8.68;;;2.20;;
48613;SDS011;34408;51.426;5.444;2023-12-28T06:01:42;9.45;;;2.47;;
48613;SDS011;34408;51.426;5.444;2023-12-28T06:04:10;11.27;;;2.80;;
48613;SDS011;34408;51.426;5.444;2023-12-28T06:06:39;7.28;;;2.50;;
48613;SDS011;34408;51.426;5.444;2023-12-28T06:09:08;5.35;;;2.03;;
48613;SDS011;34408;51.426;5.444;2023-12-28T06:11:36;8.95;;;1.95;;
48613;SDS011;34408;51.426;5.444;2023-12-28T06:14:03;11.00;;;2.47;;
48613;SDS011;34408;51.426;5.444;2023-12-28T06:16:31;9.65;;;2.75;;
48613;SDS011;34408;51.426;5.444;2023-12-28T06:19:00;10.40;;;2.70;;
48613;SDS011;34408;51.426;5.444;2023-12-28T06:21:28;7.10;;;2.05;;
48613;SDS011;34408;51.426;5.444;2023-12-28T06:23:56;12.98;;;2.75;;
48613;SDS011;34408;51.426;5.444;2023-12-28T06:26:25;10.20;;;2.03;;
48613;SDS011;34408;51.426;5.444;2023-12-28T06:28:53;9.80;;;2.60;;
48613;SDS011;34408;51.426;5.444;2023-12-28T06:31:21;8.95;;;2.25;;
48613;SDS011;34408;51.426;5.444;2023-12-28T06:33:49;7.88;;;2.05;;
48613;SDS011;34408;51.426;5.444;2023-12-28T06:36:17;7.45;;;2.22;;
48613;SDS011;34408;51.426;5.444;2023-12-28T06:38:45;7.28;;;2.15;;
48613;SDS011;34408;51.426;5.444;2023-12-28T06:41:13;7.68;;;3.10;;
48613;SDS011;34408;51.426;5.444;2023-12-28T06:43:43;14.00;;;2.35;;
48613;SDS011;34408;51.426;5.444;2023-12-28T06:46:11;10.90;;;2.15;;
48613;SDS011;34408;51.426;5.444;2023-12-28T06:48:38;12.82;;;2.47;;
48613;SDS011;34408;51.426;5.444;2023-12-28T06:51:07;9.25;;;2.30;;
48613;SDS011;34408;51.426;5.444;2023-12-28T06:53:35;8.18;;;1.90;;
48613;SDS011;34408;51.426;5.444;2023-12-28T06:56:03;12.60;;;2.20;;
48613;SDS011;34408;51.426;5.444;2023-12-28T06:58:31;16.65;;;3.33;;
48613;SDS011;34408;51.426;5.444;2023-12-28T07:01:02;13.77;;;2.88;;
48613;SDS011;34408;51.426;5.444;2023-12-28T07:03:30;12.10;;;2.78;;
48613;SDS011;34408;51.426;5.444;2023-12-28T07:05:59;16.02;;;2.65;;
48613;SDS011;34408;51.426;5.444;2023-12-28T07:08:27;8.93;;;2.25;;
48613;SDS011;34408;51.426;5.444;2023-12-28T07:10:57;15.52;;;3.40;;
48613;SDS011;34408;51.426;5.444;2023-12-28T07:13:25;10.80;;;2.70;;
48613;SDS011;34408;51.426;5.444;2023-12-28T07:15:53;16.40;;;3.45;;
48613;SDS011;34408;51.426;5.444;2023-12-28T07:18:26;12.90;;;3.63;;
48613;SDS011;34408;51.426;5.444;2023-12-28T07:20:55;17.23;;;3.03;;
48613;SDS011;34408;51.426;5.444;2023-12-28T07:23:23;11.05;;;2.03;;
48613;SDS011;34408;51.426;5.444;2023-12-28T07:25:51;10.90;;;2.08;;
48613;SDS011;34408;51.426;5.444;2023-12-28T07:28:19;12.45;;;2.47;;
48613;SDS011;34408;51.426;5.444;2023-12-28T07:30:47;12.10;;;2.97;;
48613;SDS011;34408;51.426;5.444;2023-12-28T07:33:15;11.32;;;2.35;;
48613;SDS011;34408;51.426;5.444;2023-12-28T07:35:44;10.65;;;2.30;;
48613;SDS011;34408;51.426;5.444;2023-12-28T07:38:12;8.45;;;2.58;;
48613;SDS011;34408;51.426;5.444;2023-12-28T07:40:40;12.40;;;3.03;;
48613;SDS011;34408;51.426;5.444;2023-12-28T07:43:08;11.60;;;2.30;;
48613;SDS011;34408;51.426;5.444;2023-12-28T07:45:36;12.88;;;2.72;;
48613;SDS011;34408;51.426;5.444;2023-12-28T07:48:05;10.18;;;1.83;;
48613;SDS011;34408;51.426;5.444;2023-12-28T07:50:34;12.07;;;2.33;;
48613;SDS011;34408;51.426;5.444;2023-12-28T07:53:03;10.73;;;2.50;;
48613;SDS011;34408;51.426;5.444;2023-12-28T07:55:31;13.77;;;2.38;;
48613;SDS011;34408;51.426;5.444;2023-12-28T07:57:59;12.57;;;2.95;;
48613;SDS011;34408;51.426;5.444;2023-12-28T08:00:27;13.75;;;2.60;;
48613;SDS011;34408;51.426;5.444;2023-12-28T08:02:55;12.68;;;2.97;;
48613;SDS011;34408;51.426;5.444;2023-12-28T08:05:23;13.00;;;2.60;;
48613;SDS011;34408;51.426;5.444;2023-12-28T08:07:51;14.80;;;2.42;;
48613;SDS011;34408;51.426;5.444;2023-12-28T08:10:20;8.77;;;2.67;;
48613;SDS011;34408;51.426;5.444;2023-12-28T08:12:48;8.45;;;2.70;;
48613;SDS011;34408;51.426;5.444;2023-12-28T08:15:16;13.30;;;3.25;;
48613;SDS011;34408;51.426;5.444;2023-12-28T08:17:44;9.82;;;2.78;;
48613;SDS011;34408;51.426;5.444;2023-12-28T08:20:12;9.65;;;2.28;;
48613;SDS011;34408;51.426;5.444;2023-12-28T08:22:39;20.83;;;2.95;;
48613;SDS011;34408;51.426;5.444;2023-12-28T08:25:07;13.85;;;2.90;;
48613;SDS011;34408;51.426;5.444;2023-12-28T08:27:37;7.70;;;1.95;;
48613;SDS011;34408;51.426;5.444;2023-12-28T08:30:05;12.88;;;2.55;;
48613;SDS011;34408;51.426;5.444;2023-12-28T08:32:34;16.20;;;2.60;;
48613;SDS011;34408;51.426;5.444;2023-12-28T08:35:02;12.30;;;2.65;;
48613;SDS011;34408;51.426;5.444;2023-12-28T08:37:30;12.20;;;2.38;;
48613;SDS011;34408;51.426;5.444;2023-12-28T08:39:58;12.45;;;2.28;;
48613;SDS011;34408;51.426;5.444;2023-12-28T08:42:26;12.98;;;2.70;;
48613;SDS011;34408;51.426;5.444;2023-12-28T08:44:55;9.90;;;2.28;;
48613;SDS011;34408;51.426;5.444;2023-12-28T08:47:23;16.02;;;2.22;;
48613;SDS011;34408;51.426;5.444;2023-12-28T08:49:51;13.85;;;2.65;;
48613;SDS011;34408;51.426;5.444;2023-12-28T08:52:19;14.85;;;3.67;;
48613;SDS011;34408;51.426;5.444;2023-12-28T08:54:47;8.88;;;2.85;;
48613;SDS011;34408;51.426;5.444;2023-12-28T08:57:15;12.55;;;2.20;;
48613;SDS011;34408;51.426;5.444;2023-12-28T08:59:58;12.73;;;3.10;;
48613;SDS011;34408;51.426;5.444;2023-12-28T09:02:27;13.90;;;3.40;;
48613;SDS011;34408;51.426;5.444;2023-12-28T09:04:55;14.95;;;2.95;;
48613;SDS011;34408;51.426;5.444;2023-12-28T09:07:23;9.30;;;2.47;;
48613;SDS011;34408;51.426;5.444;2023-12-28T09:09:52;10.32;;;2.55;;
48613;SDS011;34408;51.426;5.444;2023-12-28T09:12:20;17.20;;;3.83;;
48613;SDS011;34408;51.426;5.444;2023-12-28T09:14:48;15.82;;;2.40;;
48613;SDS011;34408;51.426;5.444;2023-12-28T09:17:22;11.88;;;3.08;;
48613;SDS011;34408;51.426;5.444;2023-12-28T09:19:50;8.98;;;3.10;;
48613;SDS011;34408;51.426;5.444;2023-12-28T09:22:18;21.58;;;2.92;;
48613;SDS011;34408;51.426;5.444;2023-12-28T09:24:46;9.02;;;2.38;;
48613;SDS011;34408;51.426;5.444;2023-12-28T09:27:14;13.05;;;2.38;;
48613;SDS011;34408;51.426;5.444;2023-12-28T09:29:42;9.73;;;2.67;;
48613;SDS011;34408;51.426;5.444;2023-12-28T09:32:09;14.82;;;2.85;;
48613;SDS011;34408;51.426;5.444;2023-12-28T09:34:39;12.82;;;2.63;;
48613;SDS011;34408;51.426;5.444;2023-12-28T09:37:07;9.90;;;2.92;;
48613;SDS011;34408;51.426;5.444;2023-12-28T09:39:35;16.05;;;3.40;;
48613;SDS011;34408;51.426;5.444;2023-12-28T09:42:04;18.00;;;2.97;;
48613;SDS011;34408;51.426;5.444;2023-12-28T09:44:38;18.80;;;3.97;;
48613;SDS011;34408;51.426;5.444;2023-12-28T09:47:08;15.05;;;3.58;;
48613;SDS011;34408;51.426;5.444;2023-12-28T09:49:39;18.30;;;3.60;;
48613;SDS011;34408;51.426;5.444;2023-12-28T09:52:09;22.63;;;3.33;;
48613;SDS011;34408;51.426;5.444;2023-12-28T09:54:37;11.57;;;2.97;;
48613;SDS011;34408;51.426;5.444;2023-12-28T09:57:05;10.10;;;2.47;;
48613;SDS011;34408;51.426;5.444;2023-12-28T09:59:33;14.27;;;3.45;;
48613;SDS011;34408;51.426;5.444;2023-12-28T10:02:01;12.27;;;2.45;;
48613;SDS011;34408;51.426;5.444;2023-12-28T10:04:29;19.17;;;4.45;;
48613;SDS011;34408;51.426;5.444;2023-12-28T10:06:59;12.98;;;2.65;;
48613;SDS011;34408;51.426;5.444;2023-12-28T10:09:27;12.85;;;3.00;;
48613;SDS011;34408;51.426;5.444;2023-12-28T10:11:56;24.85;;;3.20;;
48613;SDS011;34408;51.426;5.444;2023-12-28T10:14:25;14.68;;;2.45;;
48613;SDS011;34408;51.426;5.444;2023-12-28T10:16:53;15.27;;;2.92;;
48613;SDS011;34408;51.426;5.444;2023-12-28T10:19:21;16.65;;;3.53;;
48613;SDS011;34408;51.426;5.444;2023-12-28T10:21:49;16.33;;;3.15;;
48613;SDS011;34408;51.426;5.444;2023-12-28T10:24:19;11.55;;;2.65;;
48613;SDS011;34408;51.426;5.444;2023-12-28T10:26:47;22.45;;;4.40;;
48613;SDS011;34408;51.426;5.444;2023-12-28T10:29:15;17.27;;;4.07;;
48613;SDS011;34408;51.426;5.444;2023-12-28T10:31:43;14.30;;;2.50;;
48613;SDS011;34408;51.426;5.444;2023-12-28T10:34:15;13.63;;;2.95;;
48613;SDS011;34408;51.426;5.444;2023-12-28T10:36:44;11.50;;;2.80;;
48613;SDS011;34408;51.426;5.444;2023-12-28T10:39:15;22.00;;;4.05;;
48613;SDS011;34408;51.426;5.444;2023-12-28T10:41:47;15.98;;;2.85;;
48613;SDS011;34408;51.426;5.444;2023-12-28T10:44:17;14.27;;;2.72;;
48613;SDS011;34408;51.426;5.444;2023-12-28T10:46:48;17.05;;;4.35;;
48613;SDS011;34408;51.426;5.444;2023-12-28T10:49:20;17.02;;;3.85;;
48613;SDS011;34408;51.426;5.444;2023-12-28T10:51:53;15.93;;;2.70;;
48613;SDS011;34408;51.426;5.444;2023-12-28T10:54:28;14.68;;;2.95;;
48613;SDS011;34408;51.426;5.444;2023-12-28T10:57:05;20.63;;;3.58;;
48613;SDS011;34408;51.426;5.444;2023-12-28T10:59:39;13.55;;;3.03;;
48613;SDS011;34408;51.426;5.444;2023-12-28T11:02:17;15.85;;;3.47;;
48613;SDS011;34408;51.426;5.444;2023-12-28T11:04:48;17.23;;;2.53;;
48613;SDS011;34408;51.426;5.444;2023-12-28T11:07:18;9.70;;;2.45;;
48613;SDS011;34408;51.426;5.444;2023-12-28T11:09:49;14.32;;;2.88;;
48613;SDS011;34408;51.426;5.444;2023-12-28T11:12:18;15.45;;;3.22;;
48613;SDS011;34408;51.426;5.444;2023-12-28T11:14:47;12.18;;;2.35;;
48613;SDS011;34408;51.426;5.444;2023-12-28T11:17:17;16.05;;;2.95;;
48613;SDS011;34408;51.426;5.444;2023-12-28T11:19:46;10.95;;;2.75;;
48613;SDS011;34408;51.426;5.444;2023-12-28T11:22:16;12.30;;;2.58;;
48613;SDS011;34408;51.426;5.444;2023-12-28T11:24:44;13.00;;;2.80;;
48613;SDS011;34408;51.426;5.444;2023-12-28T11:27:13;8.77;;;2.40;;
48613;SDS011;34408;51.426;5.444;2023-12-28T11:29:41;14.93;;;3.60;;
48613;SDS011;34408;51.426;5.444;2023-12-28T11:32:10;11.60;;;2.55;;
48613;SDS011;34408;51.426;5.444;2023-12-28T11:34:38;9.23;;;2.80;;
48613;SDS011;34408;51.426;5.444;2023-12-28T11:37:06;11.27;;;2.45;;
48613;SDS011;34408;51.426;5.444;2023-12-28T11:39:36;12.93;;;2.72;;
48613;SDS011;34408;51.426;5.444;2023-12-28T11:42:06;12.15;;;2.72;;
48613;SDS011;34408;51.426;5.444;2023-12-28T11:44:38;11.30;;;2.42;;
48613;SDS011;34408;51.426;5.444;2023-12-28T11:47:11;9.88;;;3.10;;
48613;SDS011;34408;51.426;5.444;2023-12-28T11:49:40;11.55;;;2.40;;
48613;SDS011;34408;51.426;5.444;2023-12-28T11:52:08;15.18;;;3.15;;
48613;SDS011;34408;51.426;5.444;2023-12-28T11:54:37;12.13;;;2.90;;
48613;SDS011;34408;51.426;5.444;2023-12-28T11:57:05;14.23;;;3.40;;
48613;SDS011;34408;51.426;5.444;2023-12-28T11:59:33;12.13;;;2.67;;
48613;SDS011;34408;51.426;5.444;2023-12-28T12:02:02;14.10;;;2.97;;
48613;SDS011;34408;51.426;5.444;2023-12-28T12:04:34;10.40;;;3.15;;
48613;SDS011;34408;51.426;5.444;2023-12-28T12:07:02;18.90;;;3.72;;
48613;SDS011;34408;51.426;5.444;2023-12-28T12:09:30;11.27;;;2.53;;
48613;SDS011;34408;51.426;5.444;2023-12-28T12:12:01;15.10;;;2.70;;
48613;SDS011;34408;51.426;5.444;2023-12-28T12:14:29;11.45;;;2.35;;
48613;SDS011;34408;51.426;5.444;2023-12-28T12:16:57;10.23;;;2.90;;
48613;SDS011;34408;51.426;5.444;2023-12-28T12:19:27;17.60;;;2.75;;
48613;SDS011;34408;51.426;5.444;2023-12-28T12:21:56;12.88;;;3.35;;
48613;SDS011;34408;51.426;5.444;2023-12-28T12:24:24;10.77;;;2.70;;
48613;SDS011;34408;51.426;5.444;2023-12-28T12:26:52;16.25;;;3.80;;
48613;SDS011;34408;51.426;5.444;2023-12-28T12:29:20;12.23;;;3.13;;
48613;SDS011;34408;51.426;5.444;2023-12-28T12:31:54;14.07;;;2.60;;
48613;SDS011;34408;51.426;5.444;2023-12-28T12:34:23;12.43;;;2.85;;
48613;SDS011;34408;51.426;5.444;2023-12-28T12:36:53;17.23;;;3.10;;
48613;SDS011;34408;51.426;5.444;2023-12-28T12:39:22;18.00;;;4.07;;
48613;SDS011;34408;51.426;5.444;2023-12-28T12:41:50;13.85;;;3.80;;
48613;SDS011;34408;51.426;5.444;2023-12-28T12:44:19;14.30;;;2.45;;
48613;SDS011;34408;51.426;5.444;2023-12-28T12:46:47;16.00;;;3.45;;
48613;SDS011;34408;51.426;5.444;2023-12-28T12:49:15;16.33;;;3.08;;
48613;SDS011;34408;51.426;5.444;2023-12-28T12:51:45;15.30;;;3.60;;
48613;SDS011;34408;51.426;5.444;2023-12-28T12:54:16;15.98;;;3.03;;
48613;SDS011;34408;51.426;5.444;2023-12-28T12:56:46;13.80;;;2.45;;
48613;SDS011;34408;51.426;5.444;2023-12-28T12:59:14;11.45;;;2.55;;
48613;SDS011;34408;51.426;5.444;2023-12-28T13:01:43;15.50;;;3.05;;
48613;SDS011;34408;51.426;5.444;2023-12-28T13:04:16;13.73;;;2.90;;
48613;SDS011;34408;51.426;5.444;2023-12-28T13:06:44;16.55;;;2.97;;
48613;SDS011;34408;51.426;5.444;2023-12-28T13:09:12;17.25;;;2.88;;
48613;SDS011;34408;51.426;5.444;2023-12-28T13:11:41;12.30;;;2.90;;
48613;SDS011;34408;51.426;5.444;2023-12-28T13:14:09;13.73;;;2.80;;
48613;SDS011;34408;51.426;5.444;2023-12-28T13:16:37;13.32;;;3.25;;
48613;SDS011;34408;51.426;5.444;2023-12-28T13:19:05;14.50;;;3.33;;
48613;SDS011;34408;51.426;5.444;2023-12-28T13:21:33;14.85;;;3.38;;
48613;SDS011;34408;51.426;5.444;2023-12-28T13:24:00;14.77;;;2.92;;
48613;SDS011;34408;51.426;5.444;2023-12-28T13:26:29;11.75;;;3.33;;
48613;SDS011;34408;51.426;5.444;2023-12-28T13:28:58;16.88;;;2.63;;
48613;SDS011;34408;51.426;5.444;2023-12-28T13:31:29;17.75;;;4.30;;
48613;SDS011;34408;51.426;5.444;2023-12-28T13:33:57;15.60;;;3.28;;
48613;SDS011;34408;51.426;5.444;2023-12-28T13:36:25;11.68;;;3.83;;
48613;SDS011;34408;51.426;5.444;2023-12-28T13:38:54;12.52;;;2.50;;
48613;SDS011;34408;51.426;5.444;2023-12-28T13:41:22;11.23;;;2.85;;
48613;SDS011;34408;51.426;5.444;2023-12-28T13:43:50;15.60;;;2.88;;
48613;SDS011;34408;51.426;5.444;2023-12-28T13:46:21;13.43;;;3.03;;
48613;SDS011;34408;51.426;5.444;2023-12-28T13:48:49;15.35;;;2.65;;
48613;SDS011;34408;51.426;5.444;2023-12-28T13:51:17;17.63;;;3.38;;
48613;SDS011;34408;51.426;5.444;2023-12-28T13:53:45;15.23;;;3.95;;
48613;SDS011;34408;51.426;5.444;2023-12-28T13:56:13;14.65;;;3.30;;
48613;SDS011;34408;51.426;5.444;2023-12-28T13:58:41;13.45;;;2.80;;
48613;SDS011;34408;51.426;5.444;2023-12-28T14:01:10;16.95;;;3.00;;
48613;SDS011;34408;51.426;5.444;2023-12-28T14:03:39;9.02;;;2.70;;
48613;SDS011;34408;51.426;5.444;2023-12-28T14:06:08;11.85;;;3.22;;
48613;SDS011;34408;51.426;5.444;2023-12-28T14:08:36;13.07;;;2.53;;
48613;SDS011;34408;51.426;5.444;2023-12-28T14:11:04;9.52;;;2.63;;
48613;SDS011;34408;51.426;5.444;2023-12-28T14:13:33;18.83;;;3.22;;
48613;SDS011;34408;51.426;5.444;2023-12-28T14:16:03;13.85;;;2.88;;
48613;SDS011;34408;51.426;5.444;2023-12-28T14:18:31;9.48;;;2.65;;
48613;SDS011;34408;51.426;5.444;2023-12-28T14:21:00;12.48;;;2.20;;
48613;SDS011;34408;51.426;5.444;2023-12-28T14:23:30;8.75;;;2.15;;
48613;SDS011;34408;51.426;5.444;2023-12-28T14:25:58;15.00;;;3.28;;
48613;SDS011;34408;51.426;5.444;2023-12-28T14:28:26;13.05;;;3.28;;
48613;SDS011;34408;51.426;5.444;2023-12-28T14:30:58;10.50;;;2.20;;
48613;SDS011;34408;51.426;5.444;2023-12-28T14:33:27;13.15;;;2.50;;
48613;SDS011;34408;51.426;5.444;2023-12-28T14:35:56;13.93;;;2.72;;
48613;SDS011;34408;51.426;5.444;2023-12-28T14:38:25;11.57;;;2.17;;
48613;SDS011;34408;51.426;5.444;2023-12-28T14:40:53;14.68;;;3.33;;
48613;SDS011;34408;51.426;5.444;2023-12-28T14:43:22;10.50;;;2.33;;
48613;SDS011;34408;51.426;5.444;2023-12-28T14:45:49;9.73;;;2.80;;
48613;SDS011;34408;51.426;5.444;2023-12-28T14:48:19;14.30;;;3.13;;